createdAt,value
2022-10-03T00:01:29.408Z,2.67
2022-10-03T00:04:11.858Z,3.90
2022-10-03T00:06:51.580Z,5.97
2022-10-03T00:09:47.226Z,3.10
2022-10-03T00:12:22.702Z,3.13
2022-10-03T00:15:00.096Z,2.33
2022-10-03T00:17:39.201Z,1.80
2022-10-03T00:20:15.736Z,4.00
2022-10-03T00:22:49.240Z,3.80
2022-10-03T00:25:30.218Z,2.67
2022-10-03T00:28:13.736Z,2.80
2022-10-03T00:31:10.129Z,2.63
2022-10-03T00:33:49.176Z,3.60
2022-10-03T00:36:27.101Z,2.93
2022-10-03T00:39:26.482Z,3.27
2022-10-03T00:42:32.906Z,3.30
2022-10-03T00:45:33.714Z,2.80
2022-10-03T00:48:28.477Z,2.93
2022-10-03T00:51:11.938Z,2.90
2022-10-03T00:54:04.781Z,3.47
2022-10-03T00:57:00.582Z,3.33
2022-10-03T00:59:40.330Z,2.50
2022-10-03T01:02:33.879Z,3.50
2022-10-03T01:05:13.602Z,2.30
2022-10-03T01:08:02.201Z,2.77
2022-10-03T01:10:40.470Z,2.63
2022-10-03T01:13:24.057Z,3.27
2022-10-03T01:16:02.315Z,2.63
2022-10-03T01:18:44.462Z,2.60
2022-10-03T01:21:20.472Z,2.63
2022-10-03T01:24:24.925Z,3.57
2022-10-03T01:27:03.518Z,2.30
2022-10-03T01:30:12.378Z,2.60
2022-10-03T01:32:48.646Z,2.60
2022-10-03T01:35:27.774Z,3.17
2022-10-03T01:38:15.558Z,2.43
2022-10-03T01:40:49.228Z,3.07
2022-10-03T01:43:21.101Z,2.33
2022-10-03T01:46:07.158Z,2.43
2022-10-03T01:48:44.826Z,3.00
2022-10-03T01:51:17.583Z,2.23
2022-10-03T01:53:59.828Z,2.80
2022-10-03T01:56:36.451Z,2.00
2022-10-03T01:59:09.047Z,2.40
2022-10-03T02:01:49.510Z,3.17
2022-10-03T02:04:31.009Z,2.80
2022-10-03T02:07:08.583Z,3.10
2022-10-03T02:09:49.544Z,3.20
2022-10-03T02:12:28.981Z,2.97
2022-10-03T02:15:02.417Z,2.33
2022-10-03T02:17:52.356Z,2.80
2022-10-03T02:20:29.213Z,2.77
2022-10-03T02:22:59.101Z,2.17
2022-10-03T02:25:40.590Z,2.27
2022-10-03T02:28:36.076Z,1.57
2022-10-03T02:31:37.537Z,3.17
2022-10-03T02:34:26.647Z,3.70
2022-10-03T02:37:36.634Z,1.97
2022-10-03T02:40:48.335Z,2.60
2022-10-03T02:43:41.988Z,2.97
2022-10-03T02:46:59.101Z,2.60
2022-10-03T02:49:51.499Z,4.33
2022-10-03T02:52:53.293Z,3.60
2022-10-03T02:55:53.841Z,3.37
2022-10-03T02:58:48.317Z,4.47
2022-10-03T03:01:47.138Z,3.10
2022-10-03T03:04:38.324Z,3.93
2022-10-03T03:07:37.096Z,3.37
2022-10-03T03:10:44.075Z,4.60
2022-10-03T03:13:36.880Z,3.60
2022-10-03T03:16:53.567Z,6.27
2022-10-03T03:19:39.699Z,3.10
2022-10-03T03:22:25.331Z,3.33
2022-10-03T03:25:35.362Z,3.00
2022-10-03T03:28:14.174Z,3.33
2022-10-03T03:30:49.623Z,4.10
2022-10-03T03:33:26.484Z,2.90
2022-10-03T03:36:04.448Z,2.60
2022-10-03T03:38:42.491Z,3.30
2022-10-03T03:41:36.393Z,2.77
2022-10-03T03:44:31.791Z,3.40
2022-10-03T03:47:15.131Z,2.00
2022-10-03T03:50:03.876Z,3.70
2022-10-03T03:52:49.282Z,3.20
2022-10-03T03:55:41.031Z,4.23
2022-10-03T03:58:25.544Z,3.47
2022-10-03T04:01:33.826Z,3.80
2022-10-03T04:04:14.050Z,4.60
2022-10-03T04:06:56.413Z,3.87
2022-10-03T04:09:49.805Z,4.10
2022-10-03T04:12:30.821Z,3.17
2022-10-03T04:15:25.434Z,4.43
2022-10-03T04:18:33.065Z,3.17
2022-10-03T04:21:20.904Z,2.43
2022-10-03T04:24:02.819Z,3.80
2022-10-03T04:26:44.871Z,3.63
2022-10-03T04:29:31.342Z,4.13
2022-10-03T04:32:11.766Z,3.93
2022-10-03T04:34:52.197Z,3.00
2022-10-03T04:37:25.627Z,2.83
2022-10-03T04:40:08.603Z,2.97
2022-10-03T04:42:53.500Z,2.97
2022-10-03T04:45:39.458Z,3.13
2022-10-03T04:48:17.760Z,4.00
2022-10-03T04:50:58.209Z,4.00
2022-10-03T04:53:42.583Z,2.20
2022-10-03T04:56:37.573Z,3.57
2022-10-03T04:59:21.117Z,3.17
2022-10-03T05:01:56.869Z,3.60
2022-10-03T05:04:31.682Z,3.53
2022-10-03T05:07:08.372Z,3.73
2022-10-03T05:09:43.879Z,4.00
2022-10-03T05:12:17.917Z,3.63
2022-10-03T05:15:12.733Z,4.20
2022-10-03T05:17:50.138Z,2.83
2022-10-03T05:20:38.843Z,3.60
2022-10-03T05:23:31.380Z,6.27
2022-10-03T05:26:39.160Z,4.10
2022-10-03T05:29:03.499Z,3.87
2022-10-03T05:31:46.108Z,6.10
2022-10-03T05:34:33.775Z,3.30
2022-10-03T05:37:34.702Z,3.13
2022-10-03T05:40:08.503Z,3.47
2022-10-03T05:42:47.540Z,4.13
2022-10-03T05:45:29.409Z,4.97
2022-10-03T05:48:15.398Z,5.03
2022-10-03T05:51:24.215Z,4.73
2022-10-03T05:54:34.350Z,4.27
2022-10-03T05:57:44.468Z,7.33
2022-10-03T06:00:20.916Z,4.00
2022-10-03T06:03:12.219Z,3.33
2022-10-03T06:06:01.811Z,5.00
2022-10-03T06:09:14.368Z,5.17
2022-10-03T06:12:00.049Z,5.80
2022-10-03T06:14:49.295Z,5.63
2022-10-03T06:17:32.833Z,7.10
2022-10-03T06:20:17.500Z,5.20
2022-10-03T06:23:14.424Z,4.60
2022-10-03T06:26:10.151Z,4.87
2022-10-03T06:28:57.140Z,4.23
2022-10-03T06:32:00.901Z,6.37
2022-10-03T06:35:05.302Z,5.17
2022-10-03T06:38:12.685Z,5.00
2022-10-03T06:41:17.730Z,3.67
2022-10-03T06:44:11.461Z,5.10
2022-10-03T06:47:09.953Z,4.90
2022-10-03T06:50:09.204Z,5.27
2022-10-03T06:53:10.016Z,4.87
2022-10-03T06:56:05.735Z,4.70
2022-10-03T06:59:05.574Z,3.47
2022-10-03T07:02:19.829Z,4.70
2022-10-03T07:05:19.417Z,6.37
2022-10-03T07:08:23.901Z,5.57
2022-10-03T07:11:15.204Z,5.43
2022-10-03T07:14:10.335Z,5.10
2022-10-03T07:17:16.819Z,4.87
2022-10-03T07:20:09.017Z,5.40
2022-10-03T07:23:13.231Z,5.90
2022-10-03T07:26:12.741Z,3.53
2022-10-03T07:29:09.638Z,5.00
2022-10-03T07:31:55.410Z,4.13
2022-10-03T07:34:56.570Z,4.60
2022-10-03T07:38:00.513Z,3.13
2022-10-03T07:40:55.483Z,7.40
2022-10-03T07:44:07.747Z,8.47
2022-10-03T07:47:12.905Z,5.47
2022-10-03T07:50:05.649Z,5.87
2022-10-03T07:53:08.306Z,5.30
2022-10-03T07:55:53.253Z,5.57
2022-10-03T07:58:47.273Z,5.40
2022-10-03T08:01:51.836Z,5.40
2022-10-03T08:04:55.548Z,6.93
2022-10-03T08:07:41.758Z,3.87
2022-10-03T08:10:37.370Z,3.90
2022-10-03T08:13:32.652Z,5.50
2022-10-03T08:16:14.358Z,4.83
2022-10-03T08:19:14.182Z,4.87
2022-10-03T08:21:59.465Z,2.90
2022-10-03T08:25:02.709Z,5.10
2022-10-03T08:27:56.827Z,4.77
2022-10-03T08:30:28.827Z,5.83
2022-10-03T08:33:38.213Z,3.70
2022-10-03T08:36:32.800Z,3.10
2022-10-03T08:39:13.921Z,4.70
2022-10-03T08:42:15.778Z,4.73
2022-10-03T08:45:04.509Z,3.90
2022-10-03T08:48:16.160Z,5.03
2022-10-03T08:51:12.109Z,5.30
2022-10-03T08:54:13.549Z,4.10
2022-10-03T08:57:17.303Z,4.97
2022-10-03T09:00:12.344Z,5.23
2022-10-03T09:03:32.585Z,4.33
2022-10-03T09:06:52.822Z,5.30
2022-10-03T09:10:03.872Z,4.83
2022-10-03T09:12:53.787Z,3.70
2022-10-03T09:15:58.805Z,5.00
2022-10-03T09:18:46.443Z,4.20
2022-10-03T09:21:45.888Z,4.30
2022-10-03T09:24:49.889Z,4.17
2022-10-03T09:27:44.450Z,2.60
2022-10-03T09:30:24.765Z,4.60
2022-10-03T09:33:33.866Z,3.20
2022-10-03T09:36:31.263Z,2.70
2022-10-03T09:39:38.637Z,4.30
2022-10-03T09:42:31.788Z,2.90
2022-10-03T09:45:47.746Z,3.00
2022-10-03T09:48:42.533Z,2.50
2022-10-03T09:51:34.318Z,2.60
2022-10-03T09:54:54.336Z,3.10
2022-10-03T09:58:08.048Z,2.20
2022-10-03T10:01:20.157Z,1.90
2022-10-03T10:04:43.520Z,3.10
2022-10-03T10:07:59.432Z,2.20
2022-10-03T10:11:01.363Z,1.97
2022-10-03T10:14:07.526Z,3.13
2022-10-03T10:17:10.907Z,2.63
2022-10-03T10:20:05.224Z,2.77
2022-10-03T10:23:04.452Z,2.97
2022-10-03T10:26:09.794Z,2.00
2022-10-03T10:29:20.040Z,2.37
2022-10-03T10:32:27.628Z,1.50
2022-10-03T10:35:35.368Z,3.00
2022-10-03T10:38:27.931Z,2.63
2022-10-03T10:41:29.508Z,2.30
2022-10-03T10:44:32.302Z,1.70
2022-10-03T10:47:46.427Z,1.60
2022-10-03T10:50:48.849Z,3.60
2022-10-03T10:53:54.622Z,2.57
2022-10-03T10:57:09.517Z,1.87
2022-10-03T11:00:07.874Z,3.20
2022-10-03T11:03:15.698Z,3.60
2022-10-03T11:06:22.398Z,2.40
2022-10-03T11:09:30.500Z,2.27
2022-10-03T11:12:44.575Z,1.33
2022-10-03T11:15:50.622Z,1.63
2022-10-03T11:19:23.332Z,1.60
2022-10-03T11:22:44.655Z,2.50
2022-10-03T11:29:01.805Z,1.70
2022-10-03T11:32:02.853Z,3.00
2022-10-03T11:35:08.764Z,2.60
2022-10-03T11:37:43.003Z,3.07
2022-10-03T11:40:29.359Z,2.50
2022-10-03T11:43:24.828Z,2.77
2022-10-03T11:46:01.005Z,1.77
2022-10-03T11:48:40.222Z,2.50
2022-10-03T11:51:15.737Z,2.63
2022-10-03T11:54:00.111Z,2.20
2022-10-03T11:56:44.623Z,2.60
2022-10-03T11:59:42.594Z,1.80
2022-10-03T12:02:19.004Z,2.00
2022-10-03T12:04:53.387Z,2.13
2022-10-03T12:08:01.293Z,2.50
2022-10-03T12:10:42.399Z,1.60
2022-10-03T12:13:15.127Z,1.90
2022-10-03T12:15:47.989Z,2.00
2022-10-03T12:18:27.994Z,1.30
2022-10-03T12:21:12.843Z,2.17
2022-10-03T12:24:00.930Z,1.27
2022-10-03T12:26:43.613Z,2.30
2022-10-03T12:29:14.350Z,2.07
2022-10-03T12:31:47.382Z,1.60
2022-10-03T12:34:34.210Z,1.90
2022-10-03T12:37:20.321Z,2.30
2022-10-03T12:40:04.380Z,1.83
2022-10-03T12:42:43.951Z,2.23
2022-10-03T12:45:24.679Z,3.00
2022-10-03T12:48:17.672Z,2.13
2022-10-03T12:50:56.978Z,2.00
2022-10-03T12:53:35.763Z,1.60
2022-10-03T12:56:11.394Z,3.10
2022-10-03T12:58:58.118Z,2.70
2022-10-03T13:01:35.742Z,1.90
2022-10-03T13:04:12.699Z,2.17
2022-10-03T13:07:03.289Z,1.70
2022-10-03T13:09:56.306Z,2.23
2022-10-03T13:12:36.517Z,2.20
2022-10-03T13:15:45.622Z,1.97
2022-10-03T13:18:36.229Z,2.37
2022-10-03T13:21:33.507Z,2.33
2022-10-03T13:24:07.004Z,2.47
2022-10-03T13:26:47.640Z,2.80
2022-10-03T13:29:30.841Z,3.80
2022-10-03T13:32:18.378Z,2.80
2022-10-03T13:35:25.272Z,1.73
2022-10-03T13:38:17.157Z,2.60
2022-10-03T13:40:52.582Z,2.37
2022-10-03T13:43:28.860Z,2.00
2022-10-03T13:45:58.010Z,2.27
2022-10-03T13:48:29.126Z,2.63
2022-10-03T13:51:03.009Z,2.00
2022-10-03T13:54:01.439Z,1.60
2022-10-03T13:56:44.991Z,1.50
2022-10-03T13:59:50.677Z,1.73
2022-10-03T14:02:42.081Z,1.00
2022-10-03T14:06:01.093Z,2.23
2022-10-03T14:08:53.146Z,1.83
2022-10-03T14:11:26.926Z,2.00
2022-10-03T14:14:24.129Z,2.00
2022-10-03T14:17:01.394Z,1.80
2022-10-03T14:19:41.459Z,2.03
2022-10-03T14:22:29.760Z,1.80
2022-10-03T14:25:08.052Z,3.13
2022-10-03T14:27:53.096Z,2.33
2022-10-03T14:30:25.656Z,2.07
2022-10-03T14:33:13.104Z,2.03
2022-10-03T14:35:52.142Z,2.00
2022-10-03T14:38:48.887Z,1.50
2022-10-03T14:41:23.662Z,1.30
2022-10-03T14:43:55.349Z,1.77
2022-10-03T14:46:28.351Z,2.13
2022-10-03T14:49:03.225Z,2.20
2022-10-03T14:51:35.426Z,2.00
2022-10-03T14:54:08.511Z,2.67
2022-10-03T14:56:45.349Z,3.07
2022-10-03T14:59:19.777Z,2.00
2022-10-03T15:01:55.885Z,2.07
2022-10-03T15:04:31.864Z,1.47
2022-10-03T15:07:02.739Z,1.57
2022-10-03T15:09:43.086Z,2.07
2022-10-03T15:12:17.715Z,1.70
2022-10-03T15:14:54.555Z,2.40
2022-10-03T15:17:28.320Z,1.93
2022-10-03T15:19:58.628Z,1.60
2022-10-03T15:22:35.269Z,2.03
2022-10-03T15:25:08.790Z,2.20
2022-10-03T15:27:40.275Z,2.60
2022-10-03T15:30:19.792Z,1.60
2022-10-03T15:32:50.835Z,2.20
2022-10-03T15:35:24.783Z,1.67
2022-10-03T15:37:57.542Z,2.00
2022-10-03T15:40:32.895Z,2.50
2022-10-03T15:43:09.267Z,3.30
2022-10-03T15:45:39.356Z,2.00
2022-10-03T15:48:16.841Z,5.90
2022-10-03T15:50:53.124Z,2.13
2022-10-03T15:53:36.561Z,2.07
2022-10-03T15:56:15.093Z,3.70
2022-10-03T15:58:48.147Z,2.17
2022-10-03T16:01:22.005Z,1.80
2022-10-03T16:03:56.288Z,2.33
2022-10-03T16:06:34.937Z,2.83
2022-10-03T16:09:11.831Z,2.07
2022-10-03T16:11:47.880Z,5.43
2022-10-03T16:14:23.528Z,3.57
2022-10-03T16:16:56.706Z,2.17
2022-10-03T16:19:49.321Z,2.47
2022-10-03T16:22:23.814Z,3.37
2022-10-03T16:25:04.002Z,1.97
2022-10-03T16:27:35.502Z,2.60
2022-10-03T16:30:19.082Z,1.60
2022-10-03T16:32:57.218Z,3.40
2022-10-03T16:35:35.916Z,2.17
2022-10-03T16:38:09.354Z,1.87
2022-10-03T16:40:38.934Z,2.30
2022-10-03T16:43:09.736Z,1.87
2022-10-03T16:45:43.438Z,1.50
2022-10-03T16:48:37.628Z,2.03
2022-10-03T16:51:14.889Z,2.30
2022-10-03T16:53:45.919Z,1.80
2022-10-03T16:56:17.380Z,2.67
2022-10-03T16:58:52.333Z,2.07
2022-10-03T17:01:31.826Z,2.00
2022-10-03T17:04:13.150Z,2.10
2022-10-03T17:06:46.130Z,2.10
2022-10-03T17:09:22.262Z,2.23
2022-10-03T17:11:55.046Z,2.70
2022-10-03T17:14:24.316Z,2.53
2022-10-03T17:16:59.382Z,1.60
2022-10-03T17:19:35.065Z,2.90
2022-10-03T17:22:14.930Z,3.80
2022-10-03T17:24:48.425Z,2.00
2022-10-03T17:27:24.002Z,1.57
2022-10-03T17:29:58.109Z,2.40
2022-10-03T17:32:34.124Z,1.60
2022-10-03T17:35:08.154Z,1.97
2022-10-03T17:38:47.777Z,2.03
2022-10-03T17:41:19.302Z,2.13
2022-10-03T17:43:59.215Z,2.07
2022-10-03T17:46:38.287Z,2.17
2022-10-03T17:49:19.468Z,2.10
2022-10-03T17:51:50.056Z,1.97
2022-10-03T17:54:21.591Z,2.07
2022-10-03T17:56:56.771Z,2.10
2022-10-03T17:59:29.174Z,1.67
2022-10-03T18:02:02.730Z,2.37
2022-10-03T18:04:36.526Z,2.60
2022-10-03T18:07:10.540Z,1.70
2022-10-03T18:09:45.631Z,1.93
2022-10-03T18:12:23.305Z,2.13
2022-10-03T18:15:15.994Z,2.20
2022-10-03T18:18:08.755Z,2.00
2022-10-03T18:20:49.101Z,1.80
2022-10-03T18:23:49.906Z,2.17
2022-10-03T18:26:24.579Z,1.70
2022-10-03T18:29:12.135Z,1.87
2022-10-03T18:31:45.219Z,2.17
2022-10-03T18:34:20.901Z,1.53
2022-10-03T18:36:52.034Z,4.47
2022-10-03T18:39:24.283Z,2.17
2022-10-03T18:41:58.385Z,1.37
2022-10-03T18:44:30.479Z,2.50
2022-10-03T18:47:18.054Z,3.03
2022-10-03T18:49:55.446Z,2.13
2022-10-03T18:52:30.961Z,1.67
2022-10-03T18:55:03.796Z,1.80
2022-10-03T18:57:37.673Z,1.97
2022-10-03T19:00:18.065Z,2.03
2022-10-03T19:02:52.484Z,2.10
2022-10-03T19:05:24.072Z,1.90
2022-10-03T19:07:59.080Z,1.80
2022-10-03T19:10:38.795Z,2.47
2022-10-03T19:13:24.283Z,2.70
2022-10-03T19:16:18.885Z,1.40
2022-10-03T19:18:59.066Z,1.60
2022-10-03T19:21:28.505Z,2.57
2022-10-03T19:24:05.314Z,2.10
2022-10-03T19:26:37.289Z,1.87
2022-10-03T19:29:09.275Z,3.27
2022-10-03T19:31:42.525Z,1.77
2022-10-03T19:34:20.737Z,2.00
2022-10-03T19:36:51.118Z,3.07
2022-10-03T19:39:20.557Z,1.87
2022-10-03T19:41:53.608Z,1.80
2022-10-03T19:44:25.684Z,3.67
2022-10-03T19:47:05.396Z,2.13
2022-10-03T19:49:51.606Z,2.40
2022-10-03T19:52:29.969Z,1.23
2022-10-03T19:55:05.081Z,2.00
2022-10-03T19:57:43.317Z,2.10
2022-10-03T20:00:34.878Z,1.50
2022-10-03T20:03:14.689Z,1.90
2022-10-03T20:05:51.678Z,1.60
2022-10-03T20:08:25.328Z,1.70
2022-10-03T20:11:21.084Z,2.20
2022-10-03T20:13:50.875Z,1.60
2022-10-03T20:16:23.534Z,1.43
2022-10-03T20:18:56.628Z,2.00
2022-10-03T20:21:28.021Z,1.70
2022-10-03T20:23:57.929Z,1.60
2022-10-03T20:26:34.106Z,2.87
2022-10-03T20:29:16.681Z,2.40
2022-10-03T20:31:46.070Z,2.10
2022-10-03T20:34:18.306Z,2.70
2022-10-03T20:36:52.470Z,2.20
2022-10-03T20:39:24.416Z,1.63
2022-10-03T20:42:01.668Z,1.90
2022-10-03T20:45:01.999Z,1.60
2022-10-03T20:47:58.439Z,2.57
2022-10-03T20:50:32.387Z,2.70
2022-10-03T20:53:02.071Z,2.10
2022-10-03T20:55:34.175Z,2.00
2022-10-03T20:58:28.769Z,1.80
2022-10-03T21:01:01.862Z,2.40
2022-10-03T21:03:35.767Z,1.87
2022-10-03T21:06:17.578Z,1.83
2022-10-03T21:08:48.001Z,2.30
2022-10-03T21:11:21.813Z,2.40
2022-10-03T21:13:55.747Z,2.77
2022-10-03T21:16:26.991Z,1.90
2022-10-03T21:19:00.104Z,2.27
2022-10-03T21:21:35.800Z,2.43
2022-10-03T21:24:13.019Z,2.07
2022-10-03T21:26:46.358Z,2.20
2022-10-03T21:29:26.354Z,1.93
2022-10-03T21:32:09.632Z,2.10
2022-10-03T21:34:47.005Z,2.50
2022-10-03T21:37:21.997Z,1.80
2022-10-03T21:40:04.126Z,2.00
2022-10-03T21:42:37.788Z,2.00
2022-10-03T21:45:21.359Z,2.40
2022-10-03T21:47:53.844Z,1.83
2022-10-03T21:50:26.000Z,1.80
2022-10-03T21:53:17.532Z,1.70
2022-10-03T21:56:21.517Z,2.07
2022-10-03T21:59:08.875Z,1.90
2022-10-03T22:01:44.680Z,1.70
2022-10-03T22:04:22.157Z,2.00
2022-10-03T22:06:58.879Z,1.63
2022-10-03T22:09:28.812Z,2.00
2022-10-03T22:12:00.554Z,2.30
2022-10-03T22:14:38.743Z,2.00
2022-10-03T22:17:16.099Z,1.90
2022-10-03T22:19:50.389Z,2.10
2022-10-03T22:22:37.768Z,2.80
2022-10-03T22:25:28.268Z,2.07
2022-10-03T22:28:03.654Z,2.50
2022-10-03T22:30:35.358Z,2.27
2022-10-03T22:33:15.278Z,2.60
2022-10-03T22:35:52.073Z,1.83
2022-10-03T22:38:24.028Z,2.07
2022-10-03T22:40:57.144Z,2.13
2022-10-03T22:43:26.192Z,1.70
2022-10-03T22:45:57.053Z,1.80
2022-10-03T22:48:29.560Z,2.13
2022-10-03T22:50:58.958Z,1.70
2022-10-03T22:53:31.884Z,2.00
2022-10-03T22:56:23.637Z,2.17
2022-10-03T22:58:52.854Z,2.03
2022-10-03T23:01:22.208Z,2.20
2022-10-03T23:03:50.900Z,1.93
2022-10-03T23:06:44.612Z,1.60
2022-10-03T23:09:22.077Z,1.87
2022-10-03T23:11:53.523Z,2.20
2022-10-03T23:14:26.220Z,2.37
2022-10-03T23:17:00.304Z,2.13
2022-10-03T23:19:38.777Z,2.20
2022-10-03T23:22:14.546Z,2.00
2022-10-03T23:24:48.384Z,2.43
2022-10-03T23:27:53.709Z,1.87
2022-10-03T23:30:53.856Z,1.67
2022-10-03T23:33:48.304Z,2.37
2022-10-03T23:36:19.364Z,2.47
2022-10-03T23:39:00.166Z,1.73
2022-10-03T23:41:44.282Z,2.27
2022-10-03T23:44:49.338Z,2.00
2022-10-03T23:47:20.637Z,2.40
2022-10-03T23:49:51.460Z,2.10
2022-10-03T23:52:24.927Z,2.47
2022-10-03T23:54:57.083Z,2.00
2022-10-03T23:57:31.433Z,2.40
